NCAR-RAP Real-Time Weather Data

Output produced by METARs form (05 July 2015  07:17 UTC)
found at http://weather.rap.ucar.edu/surface/
 
Conditions at: KALB observed 05 July 2015  06:51 UTC
Temperature: 15.0°C (59°F)
Dewpoint: 13.3°C (56°F) [RH = 90%]
Pressure (altimeter): 30.03 inches Hg (1017.0 mb)
[Sea-level pressure: 1016.9 mb]
Winds: calm
Visibility: 3 miles (5 km)
Ceiling: at least 12,000 feet AGL
Clouds: scattered clouds at 10000 feet AGL
scattered clouds at 25000 feet AGL
Present Weather: MIFG BR  (shallow fog, mist)
KALB 050651Z 00000KT 3SM R01/4000VP6000FT MIFG BR SCT100 SCT250 15/13 A3003 RMK AO2 SLP169 MIFG SW-NW T01500133

Conditions at: KALB observed 05 July 2015  05:51 UTC
Temperature: 15.6°C (60°F)
Dewpoint: 14.4°C (58°F) [RH = 93%]
Pressure (altimeter): 30.02 inches Hg (1016.7 mb)
[Sea-level pressure: 1016.6 mb]
Winds: from the S (180 degrees) at 5 MPH (4 knots; 2.1 m/s)
Visibility: 4 miles (6 km)
Ceiling: 25000 feet AGL
Clouds: few clouds at 200 feet AGL
scattered clouds at 6000 feet AGL
broken clouds at 25000 feet AGL
Present Weather: MIFG BR  (shallow fog, mist)
KALB 050551Z 18004KT 4SM MIFG BR FEW002 SCT060 BKN250 16/14 A3002 RMK AO2 SLP166 MIFG SW-NW T01560144 10200 20144 50003

Conditions at: KALB observed 05 July 2015  05:41 UTC
Temperature: 16.1°C (61°F)
Dewpoint: 14.4°C (58°F) [RH = 90%]
Pressure (altimeter): 30.02 inches Hg (1016.7 mb)
Winds: from the S (170 degrees) at 5 MPH (4 knots; 2.1 m/s)
Visibility: 2.00 miles (3.22 km)
Ceiling: 25000 feet AGL
Clouds: scattered clouds at 200 feet AGL
scattered clouds at 6000 feet AGL
broken clouds at 25000 feet AGL
Present Weather: BR  (mist)
KALB 050541Z 17004KT 2SM R01/1000VP6000FT BR SCT002 SCT060 BKN250 16/14 A3002 RMK AO2 VIS 1V4 T01610144

Conditions at: KALB observed 05 July 2015  05:32 UTC
Temperature: 14.4°C (58°F)
Dewpoint: 12.8°C (55°F) [RH = 90%]
Pressure (altimeter): 30.02 inches Hg (1016.7 mb)
Winds: from the S (180 degrees) at 7 MPH (6 knots; 3.1 m/s)
Visibility: 2.00 miles (3.22 km)
Ceiling: at least 12,000 feet AGL
Clouds: few clouds at 200 feet AGL
few clouds at 6000 feet AGL
scattered clouds at 25000 feet AGL
Present Weather: BR  (mist)
KALB 050532Z 18006KT 2SM R01/0800V2000FT BR FEW002 FEW060 SCT250 14/13 A3002 RMK AO2 VIS 1V4 T01440128

Conditions at: KALB observed 05 July 2015  04:51 UTC
Temperature: 15.6°C (60°F)
Dewpoint: 14.4°C (58°F) [RH = 93%]
Pressure (altimeter): 30.03 inches Hg (1017.0 mb)
[Sea-level pressure: 1016.8 mb]
Winds: calm
Visibility: 4 miles (6 km)
Ceiling: at least 12,000 feet AGL
Clouds: few clouds at 6000 feet AGL
scattered clouds at 25000 feet AGL
Present Weather: BCFG BR  (patches of fog, mist)
KALB 050451Z 00000KT 4SM BCFG BR FEW060 SCT250 16/14 A3003 RMK AO2 SLP168 BCFG SW-N T01560144 402110144

Conditions at: KALB observed 05 July 2015  03:51 UTC
Temperature: 16.1°C (61°F)
Dewpoint: 14.4°C (58°F) [RH = 90%]
Pressure (altimeter): 30.02 inches Hg (1016.7 mb)
[Sea-level pressure: 1016.6 mb]
Winds: calm
Visibility: 5 miles (8 km)
Ceiling: at least 12,000 feet AGL
Clouds: scattered clouds at 25000 feet AGL
Present Weather: BCFG BR  (patches of fog, mist)
KALB 050351Z 00000KT 5SM BCFG BR SCT250 16/14 A3002 RMK AO2 SLP166 BCFG N-NE T01610144

Conditions at: KALB observed 05 July 2015  02:51 UTC
Temperature: 16.7°C (62°F)
Dewpoint: 15.0°C (59°F) [RH = 90%]
Pressure (altimeter): 30.01 inches Hg (1016.3 mb)
[Sea-level pressure: 1016.3 mb]
Winds: from the ESE (120 degrees) at 3 MPH (3 knots; 1.6 m/s)
Visibility: 7 miles (11 km)
Ceiling: at least 12,000 feet AGL
Clouds: few clouds at 4000 feet AGL
scattered clouds at 25000 feet AGL
Present Weather: BCFG  (patches of fog)
KALB 050251Z 12003KT 7SM BCFG FEW040 SCT250 17/15 A3001 RMK AO2 SLP163 BCFG NW-NE T01670150 51021

Conditions at: KALB observed 05 July 2015  01:51 UTC
Temperature: 17.2°C (63°F)
Dewpoint: 15.6°C (60°F) [RH = 90%]
Pressure (altimeter): 30.00 inches Hg (1016.0 mb)
[Sea-level pressure: 1015.8 mb]
Winds: calm
Visibility: 8 miles (13 km)
Ceiling: at least 12,000 feet AGL
Clouds: scattered clouds at 25000 feet AGL
Present Weather: no significant weather observed at this time
KALB 050151Z 00000KT 8SM SCT250 17/16 A3000 RMK AO2 SLP158 T01720156

Conditions at: KALB observed 05 July 2015  00:51 UTC
Temperature: 18.3°C (65°F)
Dewpoint: 16.1°C (61°F) [RH = 87%]
Pressure (altimeter): 29.98 inches Hg (1015.3 mb)
[Sea-level pressure: 1015.0 mb]
Winds: calm
Visibility: 8 miles (13 km)
Ceiling: at least 12,000 feet AGL
Clouds: few clouds at 5500 feet AGL
scattered clouds at 25000 feet AGL
Present Weather: no significant weather observed at this time
KALB 050051Z 00000KT 8SM FEW055 SCT250 18/16 A2998 RMK AO2 SLP150 T01830161

Conditions at: KALB observed 04 July 2015  23:51 UTC
Temperature: 20.0°C (68°F)
Dewpoint: 16.1°C (61°F) [RH = 78%]
Pressure (altimeter): 29.95 inches Hg (1014.3 mb)
[Sea-level pressure: 1014.2 mb]
Winds: from the SE (140 degrees) at 3 MPH (3 knots; 1.6 m/s)
Visibility: 9 miles (14 km)
Ceiling: at least 12,000 feet AGL
Clouds: few clouds at 5500 feet AGL
few clouds at 8000 feet AGL
scattered clouds at 24000 feet AGL
Present Weather: no significant weather observed at this time
KALB 042351Z 14003KT 9SM FEW055 FEW080 SCT240 20/16 A2995 RMK AO2 SLP142 60000 T02000161 10211 20189 56010

Conditions at: KALB observed 04 July 2015  22:51 UTC
Temperature: 20.0°C (68°F)
Dewpoint: 15.6°C (60°F) [RH = 76%]
Pressure (altimeter): 29.96 inches Hg (1014.6 mb)
[Sea-level pressure: 1014.6 mb]
Winds: from the ESE (120 degrees) at 5 MPH (4 knots; 2.1 m/s)
Visibility: 9 miles (14 km)
Ceiling: 8000 feet AGL
Clouds: few clouds at 1200 feet AGL
scattered clouds at 5500 feet AGL
broken clouds at 8000 feet AGL
broken clouds at 24000 feet AGL
Present Weather: no significant weather observed at this time
KALB 042251Z 12004KT 9SM FEW012 SCT055 BKN080 BKN240 20/16 A2996 RMK AO2 SLP146 T02000156

Conditions at: KALB observed 04 July 2015  21:51 UTC
Temperature: 20.0°C (68°F)
Dewpoint: 16.1°C (61°F) [RH = 78%]
Pressure (altimeter): 29.97 inches Hg (1015.0 mb)
[Sea-level pressure: 1014.9 mb]
Winds: from the E (90 degrees) at 5 MPH (4 knots; 2.1 m/s)
Visibility: 8 miles (13 km)
Ceiling: 6000 feet AGL
Clouds: few clouds at 1200 feet AGL
broken clouds at 6000 feet AGL
broken clouds at 22000 feet AGL
Present Weather: no significant weather observed at this time
KALB 042151Z 09004KT 8SM FEW012 BKN060 BKN220 20/16 A2997 RMK AO2 SLP149 T02000161

Conditions at: KALB observed 04 July 2015  20:51 UTC
Temperature: 20.0°C (68°F)
Dewpoint: 16.7°C (62°F) [RH = 81%]
Pressure (altimeter): 29.98 inches Hg (1015.3 mb)
[Sea-level pressure: 1015.3 mb]
Winds: variable direction winds at 5 MPH (4 knots; 2.1 m/s)
Visibility: 7 miles (11 km)
Ceiling: 6000 feet AGL
Clouds: scattered clouds at 1000 feet AGL
scattered clouds at 1400 feet AGL
overcast cloud deck at 6000 feet AGL
Present Weather: no significant weather observed at this time
KALB 042051Z VRB04KT 7SM SCT010 SCT014 OVC060 20/17 A2998 RMK AO2 SLP153 SCT010 V FEW BINOVC 60000 T02000167 56002

Conditions at: KALB observed 04 July 2015  19:51 UTC
Temperature: 20.0°C (68°F)
Dewpoint: 16.7°C (62°F) [RH = 81%]
Pressure (altimeter): 29.99 inches Hg (1015.7 mb)
[Sea-level pressure: 1015.5 mb]
Winds: variable direction winds at 3 MPH (3 knots; 1.6 m/s)
Visibility: 7 miles (11 km)
Ceiling: 1000 feet AGL
Clouds: broken clouds at 1000 feet AGL
broken clouds at 1400 feet AGL
overcast cloud deck at 6000 feet AGL
Present Weather: no significant weather observed at this time
KALB 041951Z VRB03KT 7SM BKN010 BKN014 OVC060 20/17 A2999 RMK AO2 SLP155 T02000167

Conditions at: KALB observed 04 July 2015  19:44 UTC
Temperature: 20.0°C (68°F)
Dewpoint: 17.2°C (63°F) [RH = 84%]
Pressure (altimeter): 29.99 inches Hg (1015.7 mb)
Winds: from the SSE (160 degrees) at 3 MPH (3 knots; 1.6 m/s)
Visibility: 7 miles (11 km)
Ceiling: 1100 feet AGL
Clouds: broken clouds at 1100 feet AGL
broken clouds at 1400 feet AGL
overcast cloud deck at 6000 feet AGL
Present Weather: no significant weather observed at this time
KALB 041944Z 16003KT 7SM BKN011 BKN014 OVC060 20/17 A2999 RMK AO2 T02000172